Walker Springs, Alabama
Current Conditions -  °F | °C
As of 7:53 AM on Saturday 01 Nov 2014 (Local Time) from KGZH Reporting Station
Clear Clear  
Wind Chill: 33°   Ceiling: Unl
Heat Index: 40°   Visibility: 10mi
Dew Point: 26°   Wind: 10mph
Humidity: 58%   Direction: 330°NNW
Pressure: 30.23"   Gusts: 17mph
Location:  31.54°N, 87.79°W
Report Text: KGZH 011253Z AUTO 33009G15KT 10SM CLR 04/M03 A3023 RMK AO2 SLP237 T00441033
Loading
Personal Weather Stations






























Interactive Weather Map
Tropical Storm Tracking
New forecast layout! Learn more

10-Day Weather Forecast

Advertisements
Track Severe Weather on mobile